sensor_id;sensor_type;location;lat;lon;timestamp;pressure;altitude;pressure_sealevel;temperature;humidity
54588;BME280;40484;50.198;19.576;2023-02-03T00:00:30;102131.19;;;3.45;58.68
54588;BME280;40484;50.198;19.576;2023-02-03T00:05:33;102130.32;;;3.32;58.92
54588;BME280;40484;50.198;19.576;2023-02-03T00:10:37;102135.45;;;3.19;59.17
54588;BME280;40484;50.198;19.576;2023-02-03T00:15:39;102132.08;;;3.26;59.10
54588;BME280;40484;50.198;19.576;2023-02-03T00:20:41;102139.66;;;3.38;58.83
54588;BME280;40484;50.198;19.576;2023-02-03T11:09:45;101323.76;;;5.08;52.74
54588;BME280;40484;50.198;19.576;2023-02-03T11:14:49;101315.35;;;5.03;52.75
54588;BME280;40484;50.198;19.576;2023-02-03T11:19:56;101294.20;;;4.85;53.00
54588;BME280;40484;50.198;19.576;2023-02-03T11:24:57;101280.35;;;5.05;52.79
54588;BME280;40484;50.198;19.576;2023-02-03T11:30:16;101256.77;;;5.23;52.48
54588;BME280;40484;50.198;19.576;2023-02-03T11:35:19;101255.34;;;4.95;52.68
54588;BME280;40484;50.198;19.576;2023-02-03T11:40:31;101215.50;;;4.70;53.99
54588;BME280;40484;50.198;19.576;2023-02-03T11:45:38;101207.95;;;4.72;53.80
54588;BME280;40484;50.198;19.576;2023-02-03T12:01:54;101149.71;;;4.38;55.01
54588;BME280;40484;50.198;19.576;2023-02-03T12:07:19;101133.18;;;4.49;55.09
54588;BME280;40484;50.198;19.576;2023-02-03T12:12:21;101107.80;;;4.47;55.58
54588;BME280;40484;50.198;19.576;2023-02-03T12:23:03;101080.02;;;5.08;54.28
54588;BME280;40484;50.198;19.576;2023-02-03T12:28:05;101061.72;;;5.18;54.17
54588;BME280;40484;50.198;19.576;2023-02-03T12:33:18;101051.52;;;5.23;54.08
54588;BME280;40484;50.198;19.576;2023-02-03T12:38:27;101033.49;;;5.10;54.23
54588;BME280;40484;50.198;19.576;2023-02-03T12:43:51;101012.20;;;5.42;53.82
54588;BME280;40484;50.198;19.576;2023-02-03T12:48:58;101000.84;;;5.49;53.51
54588;BME280;40484;50.198;19.576;2023-02-03T12:59:04;100972.56;;;5.11;54.36
54588;BME280;40484;50.198;19.576;2023-02-03T13:14:44;100937.40;;;4.72;56.31
54588;BME280;40484;50.198;19.576;2023-02-03T13:19:40;100915.60;;;4.57;56.88
54588;BME280;40484;50.198;19.576;2023-02-03T13:24:42;100895.79;;;4.63;56.95
54588;BME280;40484;50.198;19.576;2023-02-03T13:46:01;100852.10;;;4.04;61.21
54588;BME280;40484;50.198;19.576;2023-02-03T13:51:12;100816.37;;;4.23;61.01
54588;BME280;40484;50.198;19.576;2023-02-03T13:56:18;100810.15;;;4.37;60.97
54588;BME280;40484;50.198;19.576;2023-02-03T14:01:36;100788.16;;;4.13;62.29
54588;BME280;40484;50.198;19.576;2023-02-03T14:11:44;100762.31;;;4.08;62.85
54588;BME280;40484;50.198;19.576;2023-02-03T14:16:47;100745.13;;;3.78;63.60
54588;BME280;40484;50.198;19.576;2023-02-03T14:27:00;100733.83;;;3.95;63.52
54588;BME280;40484;50.198;19.576;2023-02-03T14:32:10;100713.71;;;3.87;63.92
54588;BME280;40484;50.198;19.576;2023-02-03T14:37:38;100707.45;;;3.60;64.77
54588;BME280;40484;50.198;19.576;2023-02-03T14:43:05;100696.38;;;3.78;64.49
54588;BME280;40484;50.198;19.576;2023-02-03T14:53:23;100667.48;;;3.90;64.09
54588;BME280;40484;50.198;19.576;2023-02-03T14:58:33;100671.99;;;3.89;64.29
54588;BME280;40484;50.198;19.576;2023-02-03T15:03:30;100676.28;;;3.72;64.85
54588;BME280;40484;50.198;19.576;2023-02-03T15:13:36;100661.15;;;3.90;64.33
54588;BME280;40484;50.198;19.576;2023-02-03T15:18:37;100675.87;;;3.71;65.06
54588;BME280;40484;50.198;19.576;2023-02-03T15:23:41;100705.17;;;3.93;64.66
54588;BME280;40484;50.198;19.576;2023-02-03T15:28:59;100691.27;;;3.71;65.19
54588;BME280;40484;50.198;19.576;2023-02-03T15:34:27;100674.01;;;3.71;65.58
54588;BME280;40484;50.198;19.576;2023-02-03T15:39:34;100655.33;;;3.81;65.52
54588;BME280;40484;50.198;19.576;2023-02-03T15:44:38;100676.88;;;3.53;65.92
54588;BME280;40484;50.198;19.576;2023-02-03T15:49:39;100677.41;;;3.75;65.87
54588;BME280;40484;50.198;19.576;2023-02-03T15:54:44;100682.95;;;3.84;65.76
54588;BME280;40484;50.198;19.576;2023-02-03T15:59:52;100677.98;;;4.16;64.82
54588;BME280;40484;50.198;19.576;2023-02-03T16:04:53;100676.17;;;3.66;66.34
54588;BME280;40484;50.198;19.576;2023-02-03T16:09:56;100675.46;;;4.14;64.99
54588;BME280;40484;50.198;19.576;2023-02-03T16:14:59;100663.66;;;4.11;65.27
54588;BME280;40484;50.198;19.576;2023-02-03T16:25:22;100692.20;;;3.91;66.16
54588;BME280;40484;50.198;19.576;2023-02-03T16:30:24;100689.16;;;4.37;64.75
54588;BME280;40484;50.198;19.576;2023-02-03T16:36:28;100693.70;;;4.38;65.27
54588;BME280;40484;50.198;19.576;2023-02-03T16:42:16;100687.57;;;4.12;65.71
54588;BME280;40484;50.198;19.576;2023-02-03T16:47:55;100680.27;;;4.36;65.46
54588;BME280;40484;50.198;19.576;2023-02-03T16:54:00;100671.60;;;4.63;64.71
54588;BME280;40484;50.198;19.576;2023-02-03T16:59:01;100671.80;;;4.53;65.24
54588;BME280;40484;50.198;19.576;2023-02-03T17:04:03;100671.45;;;4.75;64.55
54588;BME280;40484;50.198;19.576;2023-02-03T17:09:05;100689.88;;;4.90;63.99
54588;BME280;40484;50.198;19.576;2023-02-03T17:14:06;100691.89;;;4.68;64.70
54588;BME280;40484;50.198;19.576;2023-02-03T17:19:11;100710.57;;;4.76;65.04
54588;BME280;40484;50.198;19.576;2023-02-03T17:24:14;100736.85;;;4.61;65.36
54588;BME280;40484;50.198;19.576;2023-02-03T17:29:15;100726.13;;;5.01;64.24
54588;BME280;40484;50.198;19.576;2023-02-03T17:34:17;100722.42;;;4.91;64.50
54588;BME280;40484;50.198;19.576;2023-02-03T17:39:18;100750.80;;;4.79;64.61
54588;BME280;40484;50.198;19.576;2023-02-03T17:44:20;100746.95;;;4.83;64.46
54588;BME280;40484;50.198;19.576;2023-02-03T17:49:21;100749.43;;;4.73;65.08
54588;BME280;40484;50.198;19.576;2023-02-03T17:54:23;100753.32;;;4.63;65.80
54588;BME280;40484;50.198;19.576;2023-02-03T17:59:24;100768.34;;;4.90;64.92
54588;BME280;40484;50.198;19.576;2023-02-03T18:04:26;100764.86;;;4.72;65.46
54588;BME280;40484;50.198;19.576;2023-02-03T18:09:27;100784.63;;;4.92;64.85
54588;BME280;40484;50.198;19.576;2023-02-03T18:14:29;100775.63;;;4.95;64.98
54588;BME280;40484;50.198;19.576;2023-02-03T18:19:31;100774.20;;;4.95;65.28
54588;BME280;40484;50.198;19.576;2023-02-03T18:24:32;100793.83;;;5.07;64.87
54588;BME280;40484;50.198;19.576;2023-02-03T18:29:34;100789.91;;;4.97;65.06
54588;BME280;40484;50.198;19.576;2023-02-03T18:34:35;100787.15;;;4.93;65.16
54588;BME280;40484;50.198;19.576;2023-02-03T18:40:04;100790.55;;;5.38;64.04
54588;BME280;40484;50.198;19.576;2023-02-03T18:45:07;100789.30;;;5.37;63.89
54588;BME280;40484;50.198;19.576;2023-02-03T18:50:09;100803.73;;;5.37;63.87
54588;BME280;40484;50.198;19.576;2023-02-03T18:55:11;100806.13;;;5.33;63.98
54588;BME280;40484;50.198;19.576;2023-02-03T19:00:13;100810.84;;;5.22;64.29
54588;BME280;40484;50.198;19.576;2023-02-03T19:05:15;100806.09;;;5.12;64.42
54588;BME280;40484;50.198;19.576;2023-02-03T19:10:18;100809.61;;;5.23;64.49
54588;BME280;40484;50.198;19.576;2023-02-03T19:15:19;100813.72;;;5.22;64.18
54588;BME280;40484;50.198;19.576;2023-02-03T19:20:21;100803.63;;;5.53;63.38
54588;BME280;40484;50.198;19.576;2023-02-03T19:25:22;100815.27;;;5.37;63.90
54588;BME280;40484;50.198;19.576;2023-02-03T19:30:25;100818.80;;;5.09;64.67
54588;BME280;40484;50.198;19.576;2023-02-03T19:35:27;100809.61;;;5.03;64.61
54588;BME280;40484;50.198;19.576;2023-02-03T19:40:29;100812.51;;;4.76;65.58
54588;BME280;40484;50.198;19.576;2023-02-03T19:45:30;100836.84;;;4.87;64.99
54588;BME280;40484;50.198;19.576;2023-02-03T19:50:32;100827.31;;;5.02;64.32
54588;BME280;40484;50.198;19.576;2023-02-03T19:55:35;100818.45;;;4.83;64.96
54588;BME280;40484;50.198;19.576;2023-02-03T20:00:38;100816.72;;;4.71;65.38
54588;BME280;40484;50.198;19.576;2023-02-03T20:05:39;100821.75;;;4.83;64.82
54588;BME280;40484;50.198;19.576;2023-02-03T20:10:42;100820.03;;;4.63;65.35
54588;BME280;40484;50.198;19.576;2023-02-03T20:15:45;100827.66;;;4.91;64.23
54588;BME280;40484;50.198;19.576;2023-02-03T20:21:12;100828.56;;;4.85;63.89
54588;BME280;40484;50.198;19.576;2023-02-03T20:26:16;100834.11;;;4.94;63.33
54588;BME280;40484;50.198;19.576;2023-02-03T20:31:18;100835.90;;;4.73;63.83
54588;BME280;40484;50.198;19.576;2023-02-03T20:36:21;100848.52;;;4.84;63.39
54588;BME280;40484;50.198;19.576;2023-02-03T20:41:23;100834.98;;;4.61;63.99
54588;BME280;40484;50.198;19.576;2023-02-03T20:46:25;100832.70;;;4.58;63.97
54588;BME280;40484;50.198;19.576;2023-02-03T20:51:27;100830.40;;;4.58;64.16
54588;BME280;40484;50.198;19.576;2023-02-03T20:56:29;100825.85;;;4.31;65.12
54588;BME280;40484;50.198;19.576;2023-02-03T21:01:31;100824.90;;;4.69;64.17
54588;BME280;40484;50.198;19.576;2023-02-03T21:06:33;100821.88;;;4.71;64.25
54588;BME280;40484;50.198;19.576;2023-02-03T21:11:35;100826.33;;;4.59;64.61
54588;BME280;40484;50.198;19.576;2023-02-03T21:16:37;100810.98;;;4.63;64.78
54588;BME280;40484;50.198;19.576;2023-02-03T21:21:40;100802.39;;;4.74;64.68
54588;BME280;40484;50.198;19.576;2023-02-03T21:26:46;100812.48;;;4.84;64.59
54588;BME280;40484;50.198;19.576;2023-02-03T21:31:49;100817.64;;;4.67;64.99
54588;BME280;40484;50.198;19.576;2023-02-03T21:36:52;100825.30;;;4.59;65.53
54588;BME280;40484;50.198;19.576;2023-02-03T21:41:55;100833.02;;;4.73;65.03
54588;BME280;40484;50.198;19.576;2023-02-03T21:46:57;100822.02;;;4.86;64.89
54588;BME280;40484;50.198;19.576;2023-02-03T21:51:59;100843.01;;;4.51;66.04
54588;BME280;40484;50.198;19.576;2023-02-03T21:57:25;100821.96;;;5.02;64.58
54588;BME280;40484;50.198;19.576;2023-02-03T22:02:43;100819.30;;;4.95;64.39
54588;BME280;40484;50.198;19.576;2023-02-03T22:07:39;100828.22;;;5.06;64.47
54588;BME280;40484;50.198;19.576;2023-02-03T22:12:40;100815.86;;;5.17;64.18
54588;BME280;40484;50.198;19.576;2023-02-03T22:17:42;100806.23;;;4.55;65.48
54588;BME280;40484;50.198;19.576;2023-02-03T22:22:43;100805.91;;;5.05;64.17
54588;BME280;40484;50.198;19.576;2023-02-03T22:27:46;100801.24;;;4.79;64.76
54588;BME280;40484;50.198;19.576;2023-02-03T22:32:48;100807.27;;;4.72;65.30
54588;BME280;40484;50.198;19.576;2023-02-03T22:37:49;100804.86;;;5.11;64.05
54588;BME280;40484;50.198;19.576;2023-02-03T22:42:53;100799.66;;;5.11;64.05
54588;BME280;40484;50.198;19.576;2023-02-03T22:47:54;100798.02;;;5.02;64.34
54588;BME280;40484;50.198;19.576;2023-02-03T22:53:00;100801.44;;;5.05;64.77
54588;BME280;40484;50.198;19.576;2023-02-03T22:58:05;100801.84;;;4.96;65.19
54588;BME280;40484;50.198;19.576;2023-02-03T23:03:07;100803.52;;;4.89;65.56
54588;BME280;40484;50.198;19.576;2023-02-03T23:08:08;100803.28;;;4.96;65.40
54588;BME280;40484;50.198;19.576;2023-02-03T23:13:10;100802.45;;;5.15;64.76
54588;BME280;40484;50.198;19.576;2023-02-03T23:18:11;100798.54;;;4.96;65.43
54588;BME280;40484;50.198;19.576;2023-02-03T23:23:13;100795.66;;;4.68;66.29
54588;BME280;40484;50.198;19.576;2023-02-03T23:28:41;100773.73;;;5.20;65.35
54588;BME280;40484;50.198;19.576;2023-02-03T23:33:43;100779.45;;;5.18;65.21
54588;BME280;40484;50.198;19.576;2023-02-03T23:38:46;100774.06;;;5.27;64.96
54588;BME280;40484;50.198;19.576;2023-02-03T23:43:48;100774.42;;;5.25;65.20
54588;BME280;40484;50.198;19.576;2023-02-03T23:48:49;100767.03;;;5.16;65.50
54588;BME280;40484;50.198;19.576;2023-02-03T23:53:51;100766.06;;;5.08;65.74
54588;BME280;40484;50.198;19.576;2023-02-03T23:58:52;100773.56;;;5.03;65.74
